createdAt,value
2023-03-28T00:01:10.357Z,99573.97
2023-03-28T00:03:42.466Z,99584.72
2023-03-28T00:06:12.930Z,99592.38
2023-03-28T00:08:41.130Z,99584.72
2023-03-28T00:11:19.660Z,99594.50
2023-03-28T00:14:00.519Z,99589.37
2023-03-28T00:16:33.641Z,99596.72
2023-03-28T00:19:03.492Z,99598.72
2023-03-28T00:21:32.503Z,99597.72
2023-03-28T00:24:02.022Z,99598.78
2023-03-28T00:26:32.745Z,99605.94
2023-03-28T00:29:03.998Z,99604.37
2023-03-28T00:31:32.411Z,99607.16
2023-03-28T00:33:59.811Z,99606.66
2023-03-28T00:36:29.792Z,99612.25
2023-03-28T00:38:57.953Z,99616.47
2023-03-28T00:41:26.992Z,99614.22
2023-03-28T00:43:55.912Z,99622.91
2023-03-28T00:46:30.637Z,99634.56
2023-03-28T00:49:01.339Z,99643.09
2023-03-28T00:51:33.417Z,99653.16
2023-03-28T00:54:01.954Z,99648.19
2023-03-28T00:56:32.234Z,99644.25
2023-03-28T00:59:03.021Z,99652.81
2023-03-28T01:01:30.748Z,99655.16
2023-03-28T01:04:05.610Z,99660.59
2023-03-28T01:06:37.840Z,99649.38
2023-03-28T01:09:08.093Z,99663.56
2023-03-28T01:11:37.465Z,99681.72
2023-03-28T01:14:07.125Z,99674.41
2023-03-28T01:16:41.324Z,99668.25
2023-03-28T01:19:14.960Z,99681.06
2023-03-28T01:22:19.625Z,99687.63
2023-03-28T01:25:08.030Z,99674.91
2023-03-28T01:28:04.774Z,99693.34
2023-03-28T01:31:01.902Z,99692.66
2023-03-28T01:33:45.445Z,99696.50
2023-03-28T01:36:47.792Z,99695.59
2023-03-28T01:39:29.948Z,99709.53
2023-03-28T01:42:11.849Z,99709.16
2023-03-28T01:44:54.846Z,99722.59
2023-03-28T01:47:41.813Z,99717.09
2023-03-28T01:50:14.870Z,99716.69
2023-03-28T01:52:59.715Z,99719.19
2023-03-28T01:55:41.899Z,99724.22
2023-03-28T01:58:23.768Z,99740.03
2023-03-28T02:00:59.296Z,99730.28
2023-03-28T02:03:31.577Z,99728.97
2023-03-28T02:06:01.217Z,99738.12
2023-03-28T02:08:32.751Z,99741.91
2023-03-28T02:11:02.022Z,99738.59
2023-03-28T02:13:36.391Z,99753.66
2023-03-28T02:16:05.012Z,99749.22
2023-03-28T02:18:37.343Z,99753.31
2023-03-28T02:21:26.080Z,99749.66
2023-03-28T02:23:57.514Z,99757.91
2023-03-28T02:26:27.366Z,99762.72
2023-03-28T02:28:56.978Z,99764.28
2023-03-28T02:31:25.737Z,99765.97
2023-03-28T02:33:53.539Z,99765.34
2023-03-28T02:36:43.212Z,99764.59
2023-03-28T02:39:39.090Z,99762.31
2023-03-28T02:42:21.186Z,99775.03
2023-03-28T02:45:04.166Z,99779.75
2023-03-28T02:47:39.313Z,99778.91
2023-03-28T02:50:07.398Z,99786.97
2023-03-28T02:52:53.091Z,99783.78
2023-03-28T02:55:55.953Z,99801.53
2023-03-28T02:58:55.531Z,99800.66
2023-03-28T03:01:29.330Z,99812.31
2023-03-28T03:03:58.431Z,99815.47
2023-03-28T03:06:26.280Z,99824.34
2023-03-28T03:08:53.810Z,99838.91
2023-03-28T03:11:28.051Z,99828.47
2023-03-28T03:13:57.365Z,99834.84
2023-03-28T03:16:25.039Z,99843.78
2023-03-28T03:18:53.237Z,99842.72
2023-03-28T03:21:21.903Z,99850.09
2023-03-28T03:23:49.995Z,99849.94
2023-03-28T03:26:17.715Z,99850.91
2023-03-28T03:28:46.344Z,99856.41
2023-03-28T03:31:13.823Z,99849.84
2023-03-28T03:33:46.157Z,99856.72
2023-03-28T03:36:17.237Z,99868.19
2023-03-28T03:38:44.772Z,99862.44
2023-03-28T03:41:13.620Z,99865.00
2023-03-28T03:43:41.355Z,99866.16
2023-03-28T03:46:08.850Z,99873.88
2023-03-28T03:48:36.524Z,99871.56
2023-03-28T03:51:04.482Z,99874.50
2023-03-28T03:53:34.719Z,99879.87
2023-03-28T03:56:02.831Z,99882.53
2023-03-28T03:58:34.095Z,99884.09
2023-03-28T04:01:06.167Z,99885.81
2023-03-28T04:03:34.370Z,99891.97
2023-03-28T04:06:05.333Z,99900.13
2023-03-28T04:08:33.343Z,99903.72
2023-03-28T04:11:01.486Z,99905.47
2023-03-28T04:13:31.942Z,99910.13
2023-03-28T04:15:59.847Z,99913.12
2023-03-28T04:18:29.855Z,99912.88
2023-03-28T04:20:59.516Z,99916.25
2023-03-28T04:23:27.227Z,99929.91
2023-03-28T04:25:59.254Z,99923.38
2023-03-28T04:28:27.825Z,99926.91
2023-03-28T04:30:59.794Z,99928.94
2023-03-28T04:33:33.826Z,99928.59
2023-03-28T04:36:02.941Z,99931.66
2023-03-28T04:38:36.369Z,99935.78
2023-03-28T04:41:05.462Z,99946.63
2023-03-28T04:43:36.079Z,99946.88
2023-03-28T04:46:04.102Z,99941.50
2023-03-28T04:48:31.950Z,99949.41
2023-03-28T04:50:59.394Z,99950.72
2023-03-28T04:53:27.293Z,99959.12
2023-03-28T04:55:56.008Z,99975.47
2023-03-28T04:58:24.197Z,99964.59
2023-03-28T05:00:53.985Z,99959.88
2023-03-28T05:03:25.204Z,99962.84
2023-03-28T05:05:55.792Z,99962.84
2023-03-28T05:08:25.989Z,99969.84
2023-03-28T05:10:55.132Z,99970.50
2023-03-28T05:13:23.093Z,99964.50
2023-03-28T05:15:53.488Z,99975.97
2023-03-28T05:18:21.897Z,99977.25
2023-03-28T05:20:49.669Z,99976.75
2023-03-28T05:23:18.807Z,99980.19
2023-03-28T05:25:54.369Z,99981.34
2023-03-28T05:28:22.197Z,99975.16
2023-03-28T05:30:49.911Z,99994.72
2023-03-28T05:33:17.994Z,99994.37
2023-03-28T05:35:46.217Z,99991.06
2023-03-28T05:38:14.452Z,99995.09
2023-03-28T05:40:42.718Z,99995.13
2023-03-28T05:43:11.633Z,99995.09
2023-03-28T05:45:39.183Z,100001.00
2023-03-28T05:48:06.788Z,100001.97
2023-03-28T05:50:36.474Z,100010.72
2023-03-28T05:53:04.994Z,100006.09
2023-03-28T05:55:35.366Z,100004.56
2023-03-28T05:58:04.571Z,100009.03
2023-03-28T06:00:33.095Z,100010.44
2023-03-28T06:03:01.382Z,100010.53
2023-03-28T06:05:30.336Z,100009.66
2023-03-28T06:07:57.859Z,100020.50
2023-03-28T06:10:28.797Z,100011.91
2023-03-28T06:12:57.044Z,100021.56
2023-03-28T06:15:24.788Z,100031.06
2023-03-28T06:17:52.506Z,100030.59
2023-03-28T06:20:19.973Z,100030.16
2023-03-28T06:22:47.706Z,100038.97
2023-03-28T06:25:16.134Z,100047.37
2023-03-28T06:27:43.526Z,100038.09
2023-03-28T06:30:11.598Z,100057.56
2023-03-28T06:32:40.090Z,100045.84
2023-03-28T06:35:08.217Z,100057.59
2023-03-28T06:37:35.782Z,100065.03
2023-03-28T06:40:04.023Z,100076.62
2023-03-28T06:42:31.524Z,100077.03
2023-03-28T06:44:59.338Z,100075.09
2023-03-28T06:47:27.393Z,100076.41
2023-03-28T06:49:54.852Z,100087.13
2023-03-28T06:52:23.605Z,100091.25
2023-03-28T06:54:51.889Z,100089.75
2023-03-28T06:57:19.379Z,100095.88
2023-03-28T06:59:47.105Z,100088.34
2023-03-28T07:02:17.683Z,100100.63
2023-03-28T07:04:45.771Z,100099.78
2023-03-28T07:07:16.271Z,100100.06
2023-03-28T07:09:45.014Z,100097.16
2023-03-28T07:12:12.692Z,100100.00
2023-03-28T07:14:42.947Z,100094.63
2023-03-28T07:17:12.212Z,100108.34
2023-03-28T07:19:39.836Z,100116.69
2023-03-28T07:22:07.585Z,100109.06
2023-03-28T07:24:36.487Z,100113.88
2023-03-28T07:27:14.895Z,100114.56
2023-03-28T07:29:45.271Z,100126.09
2023-03-28T07:32:13.317Z,100131.72
2023-03-28T07:34:45.395Z,100138.38
2023-03-28T07:37:13.686Z,100127.50
2023-03-28T07:39:43.746Z,100125.03
2023-03-28T07:42:13.608Z,100122.03
2023-03-28T07:44:43.146Z,100124.09
2023-03-28T07:47:10.962Z,100123.28
2023-03-28T07:49:39.654Z,100129.75
2023-03-28T07:52:08.259Z,100129.38
2023-03-28T07:54:35.827Z,100138.09
2023-03-28T07:57:03.838Z,100136.50
2023-03-28T07:59:31.686Z,100130.03
2023-03-28T08:02:00.137Z,100113.59
2023-03-28T08:04:28.434Z,100116.00
2023-03-28T08:06:58.075Z,100113.75
2023-03-28T08:09:25.725Z,100107.56
2023-03-28T08:11:54.787Z,100099.75
2023-03-28T08:14:22.512Z,100109.22
2023-03-28T08:16:52.109Z,100101.66
2023-03-28T08:19:20.007Z,100123.38
2023-03-28T08:21:47.838Z,100105.03
2023-03-28T08:24:25.419Z,100112.59
2023-03-28T08:26:57.552Z,100111.41
2023-03-28T08:29:25.423Z,100106.19
2023-03-28T08:31:53.224Z,100104.59
2023-03-28T08:34:21.796Z,100103.78
2023-03-28T08:36:49.244Z,100093.63
2023-03-28T08:39:19.189Z,100099.06
2023-03-28T08:41:53.133Z,100095.94
2023-03-28T08:44:32.851Z,100104.31
2023-03-28T08:47:11.849Z,100077.84
2023-03-28T08:49:44.356Z,100110.12
2023-03-28T08:52:12.022Z,100099.47
2023-03-28T08:54:44.621Z,100090.22
2023-03-28T08:57:14.493Z,100071.00
2023-03-28T08:59:51.175Z,100088.34
2023-03-28T09:02:23.298Z,100092.34
2023-03-28T09:04:50.918Z,100103.56
2023-03-28T09:07:18.650Z,100088.25
2023-03-28T09:10:07.913Z,100089.25
2023-03-28T09:12:48.697Z,100088.50
2023-03-28T09:15:26.013Z,100098.50
2023-03-28T09:17:53.582Z,100087.81
2023-03-28T09:20:24.755Z,100100.41
2023-03-28T09:22:54.010Z,100084.75
2023-03-28T09:25:32.857Z,100109.44
2023-03-28T09:28:13.516Z,100102.59
2023-03-28T09:30:43.042Z,100108.13
2023-03-28T09:33:21.308Z,100115.75
2023-03-28T09:35:49.161Z,100120.44
2023-03-28T09:38:21.684Z,100127.31
2023-03-28T09:40:50.252Z,100111.81
2023-03-28T09:43:33.665Z,100129.06
2023-03-28T09:46:03.256Z,100120.38
2023-03-28T09:48:36.874Z,100130.09
2023-03-28T09:51:05.438Z,100107.72
2023-03-28T09:53:34.656Z,100127.28
2023-03-28T09:56:11.672Z,100114.03
2023-03-28T09:58:50.411Z,100120.38
2023-03-28T10:01:37.625Z,100105.25
2023-03-28T10:04:24.807Z,100097.44
2023-03-28T10:06:57.321Z,100099.84
2023-03-28T10:09:26.258Z,100085.56
2023-03-28T10:11:59.343Z,100095.63
2023-03-28T10:14:33.528Z,100068.91
2023-03-28T10:17:02.670Z,100085.59
2023-03-28T10:19:33.601Z,100078.94
2023-03-28T10:22:21.477Z,100075.59
2023-03-28T10:24:49.675Z,100082.53
2023-03-28T10:27:21.144Z,100084.81
2023-03-28T10:29:48.696Z,100081.31
2023-03-28T10:32:26.776Z,100082.94
2023-03-28T10:35:02.235Z,100093.38
2023-03-28T10:37:31.806Z,100091.66
2023-03-28T10:40:01.854Z,100090.34
2023-03-28T10:42:41.671Z,100094.53
2023-03-28T10:45:19.668Z,100101.97
2023-03-28T10:47:47.883Z,100090.75
2023-03-28T10:50:20.628Z,100092.94
2023-03-28T10:53:03.639Z,100046.09
2023-03-28T10:55:41.078Z,100088.59
2023-03-28T10:58:21.290Z,100084.75
2023-03-28T11:00:56.187Z,100079.03
2023-03-28T11:03:29.255Z,100090.44
2023-03-28T11:06:08.998Z,100088.56
2023-03-28T11:08:48.413Z,100077.16
2023-03-28T11:11:19.385Z,100085.66
2023-03-28T11:13:59.725Z,100094.16
2023-03-28T11:16:46.686Z,100095.84
2023-03-28T11:19:34.518Z,100101.09
2023-03-28T11:22:09.960Z,100081.34
2023-03-28T11:24:40.863Z,100085.50
2023-03-28T11:27:16.057Z,100082.72
2023-03-28T11:29:59.658Z,100092.63
2023-03-28T11:32:29.778Z,100084.81
2023-03-28T11:34:58.643Z,100097.53
2023-03-28T11:37:27.460Z,100098.84
2023-03-28T11:40:07.524Z,100097.84
2023-03-28T11:42:36.676Z,100104.13
2023-03-28T11:45:41.965Z,100111.37
2023-03-28T11:48:19.322Z,100090.72
2023-03-28T11:50:51.429Z,100085.47
2023-03-28T11:53:23.430Z,100086.47
2023-03-28T11:55:52.010Z,100085.19
2023-03-28T11:58:21.947Z,100089.06
2023-03-28T12:00:57.357Z,100083.69
2023-03-28T12:03:30.979Z,100072.75
2023-03-28T12:06:04.820Z,100080.34
2023-03-28T12:08:35.203Z,100076.09
2023-03-28T12:11:06.381Z,100080.75
2023-03-28T12:13:58.390Z,100037.53
2023-03-28T12:16:38.716Z,100059.62
2023-03-28T12:19:13.963Z,100069.28
2023-03-28T12:21:43.340Z,100085.59
2023-03-28T12:24:14.111Z,100071.31
2023-03-28T12:26:45.464Z,100080.56
2023-03-28T12:29:16.179Z,100052.81
2023-03-28T12:31:51.181Z,100080.94
2023-03-28T12:34:38.529Z,100079.38
2023-03-28T12:37:22.979Z,100068.78
2023-03-28T12:40:13.150Z,100087.03
2023-03-28T12:42:41.541Z,100066.88
2023-03-28T12:45:11.054Z,100078.50
2023-03-28T12:47:39.699Z,100103.03
2023-03-28T12:50:10.456Z,100079.44
2023-03-28T12:52:38.827Z,100089.03
2023-03-28T12:55:24.719Z,100095.78
2023-03-28T12:57:53.013Z,100116.75
2023-03-28T13:00:47.902Z,100097.87
2023-03-28T13:03:37.024Z,100106.38
2023-03-28T13:06:40.287Z,100096.47
2023-03-28T13:09:26.557Z,100101.06
2023-03-28T13:12:07.660Z,100105.28
2023-03-28T13:14:41.149Z,100115.19
2023-03-28T13:17:21.655Z,100129.88
2023-03-28T13:19:53.629Z,100134.50
2023-03-28T13:22:31.471Z,100135.84
2023-03-28T13:25:21.121Z,100112.03
2023-03-28T13:27:56.302Z,100166.94
2023-03-28T13:30:26.350Z,100182.38
2023-03-28T13:32:56.409Z,100197.69
2023-03-28T13:35:45.075Z,100204.41
2023-03-28T13:38:50.764Z,100224.97
2023-03-28T13:41:41.148Z,100219.84
2023-03-28T13:44:20.811Z,100224.47
2023-03-28T13:46:49.717Z,100222.53
2023-03-28T13:49:29.191Z,100218.12
2023-03-28T13:52:18.640Z,100244.22
2023-03-28T13:54:46.405Z,100217.34
2023-03-28T13:57:18.214Z,100229.47
2023-03-28T13:59:56.313Z,100205.06
2023-03-28T14:02:43.817Z,100203.34
2023-03-28T14:05:28.490Z,100215.53
2023-03-28T14:08:03.834Z,100215.62
2023-03-28T14:10:36.979Z,100231.06
2023-03-28T14:13:08.278Z,100217.50
2023-03-28T14:15:37.553Z,100232.75
2023-03-28T14:18:07.653Z,100217.84
2023-03-28T14:20:36.218Z,100227.09
2023-03-28T14:23:05.201Z,100235.28
2023-03-28T14:25:32.894Z,100224.31
2023-03-28T14:28:08.619Z,100242.09
2023-03-28T14:30:41.098Z,100208.78
2023-03-28T14:33:14.088Z,100235.09
2023-03-28T14:35:43.191Z,100229.66
2023-03-28T14:38:16.976Z,100218.00
2023-03-28T14:40:45.709Z,100215.09
2023-03-28T14:43:20.692Z,100244.16
2023-03-28T14:45:52.691Z,100241.47
2023-03-28T14:48:30.311Z,100240.78
2023-03-28T14:51:00.480Z,100248.03
2023-03-28T14:53:30.414Z,100268.31
2023-03-28T14:56:04.083Z,100240.81
2023-03-28T14:58:38.341Z,100283.06
2023-03-28T15:01:07.796Z,100298.59
2023-03-28T15:03:43.144Z,100319.38
2023-03-28T15:06:14.814Z,100335.28
2023-03-28T15:08:44.251Z,100323.41
2023-03-28T15:11:25.719Z,100321.50
2023-03-28T15:14:15.723Z,100335.50
2023-03-28T15:16:45.683Z,100336.22
2023-03-28T15:19:40.101Z,100330.88
2023-03-28T15:22:13.517Z,100351.34
2023-03-28T15:24:41.428Z,100336.22
2023-03-28T15:27:19.123Z,100366.34
2023-03-28T15:29:46.555Z,100339.84
2023-03-28T15:32:17.707Z,100348.72
2023-03-28T15:35:09.140Z,100339.97
2023-03-28T15:37:42.966Z,100322.56
2023-03-28T15:40:19.701Z,100348.44
2023-03-28T15:42:49.784Z,100343.41
2023-03-28T15:45:19.851Z,100340.28
2023-03-28T15:47:49.358Z,100349.56
2023-03-28T15:50:24.750Z,100340.91
2023-03-28T15:53:05.678Z,100355.63
2023-03-28T15:55:33.827Z,100355.16
2023-03-28T15:58:03.845Z,100356.81
2023-03-28T16:00:36.718Z,100353.13
2023-03-28T16:03:16.456Z,100371.22
2023-03-28T16:05:53.279Z,100361.16
2023-03-28T16:08:32.738Z,100386.50
2023-03-28T16:11:02.266Z,100389.37
2023-03-28T16:13:32.848Z,100401.91
2023-03-28T16:16:01.159Z,100400.69
2023-03-28T16:18:30.375Z,100402.00
2023-03-28T16:20:58.251Z,100392.59
2023-03-28T16:23:25.693Z,100408.47
2023-03-28T16:25:53.148Z,100403.37
2023-03-28T16:28:23.122Z,100404.41
2023-03-28T16:30:53.149Z,100408.03
2023-03-28T16:33:21.569Z,100417.94
2023-03-28T16:35:49.437Z,100413.22
2023-03-28T16:38:16.943Z,100429.53
2023-03-28T16:40:47.760Z,100435.00
2023-03-28T16:43:16.569Z,100439.06
2023-03-28T16:45:48.485Z,100431.97
2023-03-28T16:48:17.040Z,100432.63
2023-03-28T16:50:55.616Z,100425.88
2023-03-28T16:53:23.445Z,100446.41
2023-03-28T16:55:52.254Z,100439.50
2023-03-28T16:58:19.814Z,100451.59
2023-03-28T17:00:47.998Z,100461.06
2023-03-28T17:03:17.158Z,100458.47
2023-03-28T17:05:45.509Z,100459.19
2023-03-28T17:08:13.576Z,100475.78
2023-03-28T17:10:45.840Z,100469.41
2023-03-28T17:13:13.951Z,100472.62
2023-03-28T17:15:43.146Z,100460.44
2023-03-28T17:18:11.046Z,100479.72
2023-03-28T17:20:39.712Z,100477.59
2023-03-28T17:23:07.618Z,100483.59
2023-03-28T17:25:48.278Z,100498.59
2023-03-28T17:28:24.950Z,100505.28
2023-03-28T17:30:55.076Z,100511.84
2023-03-28T17:33:25.476Z,100510.53
2023-03-28T17:35:53.325Z,100505.09
2023-03-28T17:38:21.282Z,100520.34
2023-03-28T17:40:49.859Z,100521.16
2023-03-28T17:43:17.812Z,100529.63
2023-03-28T17:45:45.881Z,100520.34
2023-03-28T17:48:24.162Z,100525.03
2023-03-28T17:50:54.362Z,100539.38
2023-03-28T17:53:22.997Z,100535.56
2023-03-28T17:55:51.649Z,100542.47
2023-03-28T17:58:25.163Z,100540.94
2023-03-28T18:00:54.881Z,100548.63
2023-03-28T18:03:24.609Z,100542.22
2023-03-28T18:05:55.568Z,100553.88
2023-03-28T18:08:24.481Z,100559.09
2023-03-28T18:10:53.410Z,100563.09
2023-03-28T18:13:22.000Z,100566.81
2023-03-28T18:15:51.927Z,100568.63
2023-03-28T18:18:20.645Z,100564.75
2023-03-28T18:20:51.372Z,100555.81
2023-03-28T18:23:23.305Z,100573.09
2023-03-28T18:25:52.982Z,100579.63
2023-03-28T18:28:25.180Z,100580.91
2023-03-28T18:30:56.166Z,100585.78
2023-03-28T18:33:24.696Z,100598.59
2023-03-28T18:35:53.193Z,100592.44
2023-03-28T18:38:22.157Z,100590.41
2023-03-28T18:40:54.844Z,100587.31
2023-03-28T18:43:23.754Z,100577.81
2023-03-28T18:45:57.404Z,100598.09
2023-03-28T18:48:26.329Z,100593.22
2023-03-28T18:50:57.681Z,100594.50
2023-03-28T18:53:28.311Z,100597.31
2023-03-28T18:55:57.156Z,100593.44
2023-03-28T18:58:26.760Z,100603.69
2023-03-28T19:01:04.287Z,100598.56
2023-03-28T19:03:40.840Z,100600.72
2023-03-28T19:06:14.179Z,100596.91
2023-03-28T19:08:44.154Z,100596.22
2023-03-28T19:11:16.341Z,100603.69
2023-03-28T19:13:46.931Z,100597.03
2023-03-28T19:16:19.726Z,100591.66
2023-03-28T19:18:51.336Z,100593.44
2023-03-28T19:21:20.630Z,100601.66
2023-03-28T19:23:53.261Z,100606.25
2023-03-28T19:26:22.888Z,100603.03
2023-03-28T19:28:55.356Z,100608.81
2023-03-28T19:31:26.040Z,100604.72
2023-03-28T19:33:56.958Z,100597.34
2023-03-28T19:36:26.444Z,100612.34
2023-03-28T19:38:55.413Z,100610.78
2023-03-28T19:41:25.012Z,100611.00
2023-03-28T19:44:01.431Z,100601.91
2023-03-28T19:46:35.470Z,100604.03
2023-03-28T19:49:06.997Z,100602.50
2023-03-28T19:51:35.513Z,100611.62
2023-03-28T19:54:07.035Z,100607.91
2023-03-28T19:56:36.033Z,100610.47
2023-03-28T19:59:03.843Z,100610.28
2023-03-28T20:01:32.402Z,100610.72
2023-03-28T20:04:01.451Z,100617.44
2023-03-28T20:06:30.171Z,100611.94
2023-03-28T20:08:58.806Z,100609.53
2023-03-28T20:11:28.510Z,100600.63
2023-03-28T20:13:58.089Z,100601.34
2023-03-28T20:16:27.762Z,100593.22
2023-03-28T20:18:56.536Z,100598.94
2023-03-28T20:21:24.490Z,100584.66
2023-03-28T20:23:55.176Z,100588.09
2023-03-28T20:26:27.836Z,100588.84
2023-03-28T20:29:00.332Z,100602.75
2023-03-28T20:31:29.566Z,100602.09
2023-03-28T20:33:58.636Z,100598.44
2023-03-28T20:36:28.086Z,100602.69
2023-03-28T20:38:55.844Z,100599.19
2023-03-28T20:41:24.552Z,100600.78
2023-03-28T20:43:53.250Z,100601.28
2023-03-28T20:46:22.001Z,100603.16
2023-03-28T20:48:56.848Z,100599.97
2023-03-28T20:51:25.935Z,100602.72
2023-03-28T20:53:57.008Z,100600.13
2023-03-28T20:56:27.436Z,100614.34
2023-03-28T20:58:58.180Z,100613.22
2023-03-28T21:01:28.218Z,100614.97
2023-03-28T21:03:58.210Z,100612.12
2023-03-28T21:06:34.840Z,100617.16
2023-03-28T21:09:05.522Z,100620.47
2023-03-28T21:11:34.923Z,100626.47
2023-03-28T21:14:04.650Z,100620.31
2023-03-28T21:16:32.934Z,100628.66
2023-03-28T21:19:01.747Z,100621.97
2023-03-28T21:21:29.984Z,100615.38
2023-03-28T21:23:57.550Z,100617.53
2023-03-28T21:26:25.661Z,100614.72
2023-03-28T21:28:53.385Z,100616.28
2023-03-28T21:31:26.298Z,100626.03
2023-03-28T21:33:57.255Z,100626.06
2023-03-28T21:36:26.473Z,100633.19
2023-03-28T21:38:55.393Z,100625.50
2023-03-28T21:41:22.930Z,100638.94
2023-03-28T21:43:50.665Z,100633.53
2023-03-28T21:46:18.873Z,100643.53
2023-03-28T21:48:48.321Z,100643.75
2023-03-28T21:51:17.116Z,100637.19
2023-03-28T21:53:45.777Z,100652.31
2023-03-28T21:56:14.594Z,100643.06
2023-03-28T21:58:42.579Z,100642.06
2023-03-28T22:01:13.434Z,100645.19
2023-03-28T22:03:41.175Z,100639.56
2023-03-28T22:06:09.219Z,100636.59
2023-03-28T22:08:36.666Z,100644.84
2023-03-28T22:11:13.500Z,100640.66
2023-03-28T22:13:42.016Z,100645.94
2023-03-28T22:16:09.816Z,100663.22
2023-03-28T22:18:37.349Z,100660.44
2023-03-28T22:21:05.150Z,100672.81
2023-03-28T22:23:32.880Z,100667.59
2023-03-28T22:26:00.390Z,100672.06
2023-03-28T22:28:27.767Z,100680.50
2023-03-28T22:30:56.718Z,100678.66
2023-03-28T22:33:25.450Z,100670.03
2023-03-28T22:35:53.207Z,100673.59
2023-03-28T22:38:21.484Z,100673.69
2023-03-28T22:40:49.379Z,100684.25
2023-03-28T22:43:35.471Z,100678.00
2023-03-28T22:46:03.407Z,100673.72
2023-03-28T22:48:31.605Z,100675.06
2023-03-28T22:51:02.395Z,100683.94
2023-03-28T22:53:30.470Z,100678.00
2023-03-28T22:55:58.724Z,100673.47
2023-03-28T22:58:26.481Z,100680.50
2023-03-28T23:00:55.042Z,100677.69
2023-03-28T23:03:22.887Z,100676.72
2023-03-28T23:05:51.658Z,100670.94
2023-03-28T23:08:19.438Z,100676.34
2023-03-28T23:10:47.283Z,100687.66
2023-03-28T23:13:14.652Z,100691.81
2023-03-28T23:15:42.530Z,100702.69
2023-03-28T23:18:09.956Z,100702.69
2023-03-28T23:20:38.151Z,100706.47
2023-03-28T23:23:06.804Z,100708.06
2023-03-28T23:25:34.460Z,100723.62
2023-03-28T23:28:01.838Z,100725.50
2023-03-28T23:30:29.555Z,100727.91
2023-03-28T23:32:57.005Z,100732.06
2023-03-28T23:35:24.425Z,100739.97
2023-03-28T23:37:53.252Z,100739.41
2023-03-28T23:40:20.710Z,100747.31
2023-03-28T23:42:48.181Z,100758.38
2023-03-28T23:45:16.059Z,100753.97
2023-03-28T23:47:44.169Z,100755.47
2023-03-28T23:50:12.289Z,100765.44
2023-03-28T23:52:40.299Z,100766.66
2023-03-28T23:55:08.880Z,100764.09
2023-03-28T23:57:36.730Z,100770.84
